Main page
METAR-TAF:

METAR-TAF

Airports :

Stockton Metropolitan Airport

Stockton, California, United States

latitude: 37-53-23N, longitude: 121-13-25W, elevation: 30 ft

Current weather observation

The report was made 43 minutes ago, at 02:55 UTC
Wind 8 mph from the Northwest
Temperature 91°F
Humidity 30%
Pressure 29.90 in. Hg
Visibility: 10 miles
Clear sky

METAR: KSCK 190255Z 31007KT 10SM CLR 33/13 A2990 RMK AO2 SLP125 T03280133 53005

Time: 20:38 (03:38 UTC)

Forecast

The report was made 4 hours and 18 minutes ago, at 23:20 UTC
Forecast valid from 19 at 00 UTC to 19 at 24 UTC
Wind 13 mph from the West/Northwest
Visibility: 6 miles
Clear sky
From 19 at 0600 UTC
Wind 7 mph from variable directions
Visibility: 6 miles
Clear sky
From 19 at 1900 UTC
Wind 10 mph from the Northwest
Visibility: 6 miles
Clear sky

TAF: KSCK 182320Z 1900/1924 30011KT P6SM SKC FM190600 VRB06KT P6SM SKC FM191900 31009KT P6SM SKC

Weather observations and forecasts of more than 4000 airports (METAR and TAF reports).

The available stations are represented by yellow and red dots on the map.

Hover mouse over dot to see the name of the station.

Then click to see weather observations and forecasts.

To change the map : click on the green buttons with a black cross to zoom in, on the green button with a dash to zoom out, or on the green arrows for adjacent maps.


METAR-TAF: